Time;durP1;ratioP1;P1;durP2;ratioP2;P2;SDS_P1;SDS_P2;PMS_P1;PMS_P2;Temp;Humidity;BMP_temperature;BMP_pressure;BME280_temperature;BME280_humidity;BME280_pressure;Samples;Min_cycle;Max_cycle;Signal;HPM_P1;HPM_P2
2022/06/20 00:02:48;;;;;;;;;;;;;;;;;;10421128;28;20291;-67
2022/06/20 00:07:50;;;;;;;;;;;;;;;;;;10420963;28;19975;-67
2022/06/20 00:12:52;;;;;;;;;;;;;;;;;;10421856;28;20273;-67
2022/06/20 00:17:54;;;;;;;;;;;;;;;;;;10421203;28;19925;-66
2022/06/20 00:22:57;;;;;;;;;;;;;;;;;;10420960;28;19925;-67
2022/06/20 00:27:59;;;;;;;;;;;;;;;;;;10436384;28;19925;-67
2022/06/20 00:33:01;;;;;;;;;;;;;;;;;;10461154;28;19936;-67
2022/06/20 00:38:03;;;;;;;;;;;;;;;;;;10461702;28;19924;-67
2022/06/20 00:43:05;;;;;;;;;;;;;;;;;;10460361;28;20287;-67
2022/06/20 00:48:07;;;;;;;;;;;;;;;;;;10460633;28;19924;-67
2022/06/20 00:53:14;;;;;;;;;;;;;;;;;;10419885;28;19925;-67
2022/06/20 00:58:16;;;;;;;;;;;;;;;;;;10434886;28;19925;-67
2022/06/20 01:03:18;;;;;;;;;;;;;;;;;;10418647;28;19928;-67
2022/06/20 01:08:20;;;;;;;;;;;;;;;;;;10419428;28;20327;-67
2022/06/20 01:13:22;;;;;;;;;;;;;;;;;;10433538;28;19925;-67
2022/06/20 01:18:24;;;;;;;;;;;;;;;;;;10418235;28;19947;-67
2022/06/20 01:23:26;;;;;;;;;;;;;;;;;;10419580;28;19925;-67
2022/06/20 01:28:30;;;;;;;;;;;;;;;;;;10418895;28;19931;-67
2022/06/20 01:33:32;;;;;;;;;;;;;;;;;;10418254;28;19932;-67
2022/06/20 01:38:34;;;;;;;;;;;;;;;;;;10417600;28;19924;-67
2022/06/20 01:43:36;;;;;;;;;;;;;;;;;;10416969;28;20276;-67
2022/06/20 01:48:38;;;;;;;;;;;;;;;;;;10421328;28;20379;-67
2022/06/20 01:53:40;;;;;;;;;;;;;;;;;;10440770;28;19936;-67
2022/06/20 01:58:42;;;;;;;;;;;;;;;;;;10431976;28;20372;-67
2022/06/20 02:03:44;;;;;;;;;;;;;;;;;;10416462;28;19925;-67
2022/06/20 02:08:48;;;;;;;;;;;;;;;;;;10417971;28;19932;-67
2022/06/20 02:13:50;;;;;;;;;;;;;;;;;;10416855;28;19929;-67
2022/06/20 02:18:52;;;;;;;;;;;;;;;;;;10416713;28;19932;-67
2022/06/20 02:23:55;;;;;;;;;;;;;;;;;;10434729;28;20402;-67
2022/06/20 02:28:57;;;;;;;;;;;;;;;;;;10455916;28;19932;-67
2022/06/20 02:33:59;;;;;;;;;;;;;;;;;;10456800;28;20383;-67
2022/06/20 02:39:01;;;;;;;;;;;;;;;;;;10457349;28;19928;-67
2022/06/20 02:44:03;;;;;;;;;;;;;;;;;;10456088;28;19947;-67
2022/06/20 02:49:09;;;;;;;;;;;;;;;;;;10454236;28;19928;-67
2022/06/20 02:54:11;;;;;;;;;;;;;;;;;;10456399;28;19928;-67
2022/06/20 02:59:13;;;;;;;;;;;;;;;;;;10456928;28;19925;-67
2022/06/20 03:04:15;;;;;;;;;;;;;;;;;;10456757;28;19924;-67
2022/06/20 03:09:19;;;;;;;;;;;;;;;;;;10454189;28;19979;-67
2022/06/20 03:14:21;;;;;;;;;;;;;;;;;;10456656;28;19928;-67
2022/06/20 03:19:23;;;;;;;;;;;;;;;;;;10429355;28;19932;-67
2022/06/20 03:24:26;;;;;;;;;;;;;;;;;;10414604;28;19929;-67
2022/06/20 03:29:28;;;;;;;;;;;;;;;;;;10416240;28;19932;-67
2022/06/20 03:34:30;;;;;;;;;;;;;;;;;;10418483;28;20284;-67
2022/06/20 03:39:35;;;;;;;;;;;;;;;;;;10422047;28;20368;-67
2022/06/20 03:44:38;;;;;;;;;;;;;;;;;;10438338;28;19931;-66
2022/06/20 03:49:40;;;;;;;;;;;;;;;;;;10435470;28;19925;-66
2022/06/20 03:54:42;;;;;;;;;;;;;;;;;;10421534;28;19948;-66
2022/06/20 03:59:44;;;;;;;;;;;;;;;;;;10421343;28;20411;-66
2022/06/20 04:04:46;;;;;;;;;;;;;;;;;;10421020;28;19948;-66
2022/06/20 04:15:09;;;;;;;;;;;;;;;;;;10429148;28;19924;-66
2022/06/20 04:20:11;;;;;;;;;;;;;;;;;;10461850;28;20283;-66
2022/06/20 04:25:13;;;;;;;;;;;;;;;;;;10461569;28;19947;-66
2022/06/20 04:30:15;;;;;;;;;;;;;;;;;;10443486;28;20276;-66
2022/06/20 04:35:17;;;;;;;;;;;;;;;;;;10420651;28;19925;-66
2022/06/20 04:40:19;;;;;;;;;;;;;;;;;;10420501;28;19925;-66
2022/06/20 04:45:21;;;;;;;;;;;;;;;;;;10428286;28;20053;-66
2022/06/20 04:50:23;;;;;;;;;;;;;;;;;;10442049;28;19925;-66
2022/06/20 04:55:25;;;;;;;;;;;;;;;;;;10433260;28;19928;-66
2022/06/20 05:00:27;;;;;;;;;;;;;;;;;;10460129;28;19932;-67
2022/06/20 05:05:29;;;;;;;;;;;;;;;;;;10460012;28;19928;-66
2022/06/20 05:10:31;;;;;;;;;;;;;;;;;;10458151;28;20383;-66
2022/06/20 05:15:34;;;;;;;;;;;;;;;;;;10432566;28;19925;-66
2022/06/20 05:20:36;;;;;;;;;;;;;;;;;;10418798;28;19925;-66
2022/06/20 05:25:38;;;;;;;;;;;;;;;;;;10418654;28;19925;-66
2022/06/20 05:30:40;;;;;;;;;;;;;;;;;;10418865;28;20369;-67
2022/06/20 05:35:42;;;;;;;;;;;;;;;;;;10417626;28;20454;-66
2022/06/20 05:40:45;;;;;;;;;;;;;;;;;;10418002;28;19925;-66
2022/06/20 05:45:47;;;;;;;;;;;;;;;;;;10418216;28;19931;-66
2022/06/20 05:50:49;;;;;;;;;;;;;;;;;;10418762;28;19925;-66
2022/06/20 05:55:51;;;;;;;;;;;;;;;;;;10416802;28;19925;-66
2022/06/20 06:00:53;;;;;;;;;;;;;;;;;;10417166;28;19931;-67
2022/06/20 06:05:55;;;;;;;;;;;;;;;;;;10433020;28;19932;-67
2022/06/20 06:10:58;;;;;;;;;;;;;;;;;;10417727;28;19925;-67
2022/06/20 06:21:20;;;;;;;;;;;;;;;;;;10416927;28;19979;-68
2022/06/20 06:26:23;;;;;;;;;;;;;;;;;;10415993;28;20299;-65
2022/06/20 06:31:25;;;;;;;;;;;;;;;;;;10419618;28;20277;-68
2022/06/20 06:36:28;;;;;;;;;;;;;;;;;;10420296;28;20403;-68
2022/06/20 06:41:31;;;;;;;;;;;;;;;;;;10427341;28;20308;-68
2022/06/20 06:46:33;;;;;;;;;;;;;;;;;;10410932;28;20307;-68
2022/06/20 06:51:35;;;;;;;;;;;;;;;;;;10404708;28;19932;-68
2022/06/20 06:56:37;;;;;;;;;;;;;;;;;;10416313;28;19925;-68
2022/06/20 07:01:39;;;;;;;;;;;;;;;;;;10415102;28;19925;-68
2022/06/20 07:06:41;;;;;;;;;;;;;;;;;;10416667;28;19925;-68
2022/06/20 07:11:43;;;;;;;;;;;;;;;;;;10424965;28;19925;-68
2022/06/20 07:16:45;;;;;;;;;;;;;;;;;;10423017;28;20323;-68
2022/06/20 07:21:48;;;;;;;;;;;;;;;;;;10423402;28;19925;-68
2022/06/20 07:26:50;;;;;;;;;;;;;;;;;;10428539;28;20287;-68
2022/06/20 07:31:52;;;;;;;;;;;;;;;;;;10451015;28;19925;-68
2022/06/20 07:36:54;;;;;;;;;;;;;;;;;;10446233;28;19925;-69
2022/06/20 07:41:58;;;;;;;;;;;;;;;;;;10440195;28;19925;-69
2022/06/20 07:47:00;;;;;;;;;;;;;;;;;;10426859;28;19929;-69
2022/06/20 07:52:02;;;;;;;;;;;;;;;;;;10433790;28;20311;-70
2022/06/20 07:57:04;;;;;;;;;;;;;;;;;;10438457;28;19932;-70
2022/06/20 08:02:06;;;;;;;;;;;;;;;;;;10439989;28;19925;-71
2022/06/20 08:07:09;;;;;;;;;;;;;;;;;;10441118;28;19925;-70
2022/06/20 08:12:13;;;;;;;;;;;;;;;;;;10461178;28;19925;-70
2022/06/20 08:17:15;;;;;;;;;;;;;;;;;;10460950;28;19925;-70
2022/06/20 08:22:17;;;;;;;;;;;;;;;;;;10429821;28;19956;-71
2022/06/20 08:27:19;;;;;;;;;;;;;;;;;;10421017;28;19925;-70
2022/06/20 08:32:22;;;;;;;;;;;;;;;;;;10455525;28;19924;-70
2022/06/20 08:37:24;;;;;;;;;;;;;;;;;;10419315;28;19925;-72
2022/06/20 08:42:28;;;;;;;;;;;;;;;;;;10420078;28;19925;-69
2022/06/20 08:47:30;;;;;;;;;;;;;;;;;;10420234;28;19925;-70
2022/06/20 08:52:32;;;;;;;;;;;;;;;;;;10419427;28;20300;-70
2022/06/20 08:57:34;;;;;;;;;;;;;;;;;;10427323;22;20387;-69
2022/06/20 09:02:56;;;;;;;;;;;;;;;;;;10419399;28;19975;-71
2022/06/20 09:07:58;;;;;;;;;;;;;;;;;;10416904;28;19929;-70
2022/06/20 09:13:00;;;;;;;;;;;;;;;;;;10417344;28;19932;-72
2022/06/20 09:18:02;;;;;;;;;;;;;;;;;;10418222;28;19925;-72
2022/06/20 09:23:04;;;;;;;;;;;;;;;;;;10418645;28;19925;-72
2022/06/20 09:28:07;;;;;;;;;;;;;;;;;;10416183;28;20015;-71
2022/06/20 09:33:09;;;;;;;;;;;;;;;;;;10416261;28;19932;-72
2022/06/20 09:38:11;;;;;;;;;;;;;;;;;;10416191;28;20387;-72
2022/06/20 09:43:13;;;;;;;;;;;;;;;;;;10427431;28;19925;-73
2022/06/20 09:48:15;;;;;;;;;;;;;;;;;;10415809;28;20261;-73
2022/06/20 09:53:17;;;;;;;;;;;;;;;;;;10416663;28;20296;-72
2022/06/20 09:58:19;;;;;;;;;;;;;;;;;;10416762;28;19932;-73
2022/06/20 10:03:21;;;;;;;;;;;;;;;;;;10416236;28;19926;-72
2022/06/20 10:08:23;;;;;;;;;;;;;;;;;;10415686;28;19936;-73
2022/06/20 10:13:28;;;;;;;;;;;;;;;;;;10413034;28;19989;-69
2022/06/20 10:18:30;;;;;;;;;;;;;;;;;;10422606;28;20287;-70
2022/06/20 10:23:32;;;;;;;;;;;;;;;;;;10416567;28;20273;-69
2022/06/20 10:28:34;;;;;;;;;;;;;;;;;;10415839;28;19929;-70
2022/06/20 10:33:36;;;;;;;;;;;;;;;;;;10415383;28;19948;-70
2022/06/20 10:38:38;;;;;;;;;;;;;;;;;;10404551;28;20303;-69
2022/06/20 10:43:40;;;;;;;;;;;;;;;;;;10411120;28;20016;-69
2022/06/20 10:48:43;;;;;;;;;;;;;;;;;;10408026;28;20027;-70
2022/06/20 10:53:45;;;;;;;;;;;;;;;;;;10411613;28;20395;-69
2022/06/20 10:58:47;;;;;;;;;;;;;;;;;;10408180;28;20380;-69
2022/06/20 11:03:49;;;;;;;;;;;;;;;;;;10407986;28;20311;-68
2022/06/20 11:08:51;;;;;;;;;;;;;;;;;;10407859;28;19935;-74
2022/06/20 11:13:53;;;;;;;;;;;;;;;;;;10408631;28;19932;-73
2022/06/20 11:18:55;;;;;;;;;;;;;;;;;;10407984;28;19929;-73
2022/06/20 11:23:57;;;;;;;;;;;;;;;;;;10408436;28;19936;-74
2022/06/20 11:28:59;;;;;;;;;;;;;;;;;;10407513;28;19929;-73
2022/06/20 11:34:02;;;;;;;;;;;;;;;;;;10407859;28;19929;-73
2022/06/20 11:39:04;;;;;;;;;;;;;;;;;;10407267;28;19933;-73
2022/06/20 11:44:08;;;;;;;;;;;;;;;;;;10407953;28;19929;-67
2022/06/20 11:49:11;;;;;;;;;;;;;;;;;;10406407;28;19925;-68
2022/06/20 11:54:13;;;;;;;;;;;;;;;;;;10409047;28;19936;-69
2022/06/20 11:59:16;;;;;;;;;;;;;;;;;;10414149;28;20284;-69
2022/06/20 12:04:18;;;;;;;;;;;;;;;;;;10414417;28;20299;-69
2022/06/20 12:09:20;;;;;;;;;;;;;;;;;;10414405;28;19936;-69
2022/06/20 12:14:22;;;;;;;;;;;;;;;;;;10417491;28;19929;-69
2022/06/20 12:24:45;;;;;;;;;;;;;;;;;;10423146;28;19929;-69
2022/06/20 12:29:47;;;;;;;;;;;;;;;;;;10424917;28;19951;-67
2022/06/20 12:34:49;;;;;;;;;;;;;;;;;;10458790;28;20390;-71
2022/06/20 12:39:51;;;;;;;;;;;;;;;;;;10460610;28;19925;-71
2022/06/20 12:44:54;;;;;;;;;;;;;;;;;;10458647;28;20376;-71
2022/06/20 12:49:56;;;;;;;;;;;;;;;;;;10457307;28;20287;-70
2022/06/20 12:54:58;;;;;;;;;;;;;;;;;;10460962;28;19932;-70
2022/06/20 13:00:04;;;;;;;;;;;;;;;;;;10460518;28;19928;-70
2022/06/20 13:05:06;;;;;;;;;;;;;;;;;;10457985;28;20279;-71
2022/06/20 13:10:08;;;;;;;;;;;;;;;;;;10458364;28;20372;-70
2022/06/20 13:15:10;;;;;;;;;;;;;;;;;;10458434;28;20288;-71
2022/06/20 13:20:12;;;;;;;;;;;;;;;;;;10459982;28;19925;-71
2022/06/20 13:25:14;;;;;;;;;;;;;;;;;;10445196;28;19929;-70
2022/06/20 13:30:16;;;;;;;;;;;;;;;;;;10449909;28;19925;-71
2022/06/20 13:35:19;;;;;;;;;;;;;;;;;;10459844;28;19924;-70
2022/06/20 13:40:21;;;;;;;;;;;;;;;;;;10418638;28;19925;-69
2022/06/20 13:45:23;;;;;;;;;;;;;;;;;;10417904;28;19932;-69
2022/06/20 13:50:48;;;;;;;;;;;;;;;;;;10418068;28;19912;-70
2022/06/20 13:55:50;;;;;;;;;;;;;;;;;;10417660;28;19940;-70
2022/06/20 14:00:53;;;;;;;;;;;;;;;;;;10415509;28;20364;-70
2022/06/20 14:06:04;;;;;;;;;;;;;;;;;;10416634;28;20376;-70
2022/06/20 14:11:06;;;;;;;;;;;;;;;;;;10416432;28;19925;-70
2022/06/20 14:16:08;;;;;;;;;;;;;;;;;;10415829;28;20300;-70
2022/06/20 14:21:10;;;;;;;;;;;;;;;;;;10416136;28;19932;-69
2022/06/20 14:26:17;;;;;;;;;;;;;;;;;;10415998;28;20319;-69
2022/06/20 14:31:20;;;;;;;;;;;;;;;;;;10416532;28;19925;-69
2022/06/20 14:36:22;;;;;;;;;;;;;;;;;;10415854;28;19925;-71
2022/06/20 14:41:39;;;;;;;;;;;;;;;;;;10414491;28;19936;-69
2022/06/20 14:46:41;;;;;;;;;;;;;;;;;;10416464;28;19925;-69
2022/06/20 14:51:44;;;;;;;;;;;;;;;;;;10419425;28;20418;-71
2022/06/20 14:56:47;;;;;;;;;;;;;;;;;;10417691;28;20426;-69
2022/06/20 15:01:49;;;;;;;;;;;;;;;;;;10415431;28;20023;-72
2022/06/20 15:06:51;;;;;;;;;;;;;;;;;;10416759;28;19925;-71
2022/06/20 15:11:53;;;;;;;;;;;;;;;;;;10417955;28;19925;-70
2022/06/20 15:16:55;;;;;;;;;;;;;;;;;;10415551;28;19931;-70
2022/06/20 15:21:57;;;;;;;;;;;;;;;;;;10415398;28;19929;-69
2022/06/20 15:27:00;;;;;;;;;;;;;;;;;;10416423;28;19933;-71
2022/06/20 15:32:02;;;;;;;;;;;;;;;;;;10421109;28;19925;-70
2022/06/20 15:37:04;;;;;;;;;;;;;;;;;;10439034;28;19932;-69
2022/06/20 15:47:20;;;;;;;;;;;;;;;;;;10423653;28;20019;-70
2022/06/20 15:52:22;;;;;;;;;;;;;;;;;;10402738;28;19925;-70
2022/06/20 15:57:25;;;;;;;;;;;;;;;;;;10422295;28;19929;-70
2022/06/20 16:02:27;;;;;;;;;;;;;;;;;;10422018;28;19939;-70
2022/06/20 16:07:30;;;;;;;;;;;;;;;;;;10420122;28;20304;-70
2022/06/20 16:12:32;;;;;;;;;;;;;;;;;;10437638;28;20424;-69
2022/06/20 16:17:34;;;;;;;;;;;;;;;;;;10439237;28;20297;-66
2022/06/20 16:22:36;;;;;;;;;;;;;;;;;;10436435;28;19929;-71
2022/06/20 16:27:43;;;;;;;;;;;;;;;;;;10462452;28;19935;-69
2022/06/20 16:32:46;;;;;;;;;;;;;;;;;;10458732;28;20295;-70
2022/06/20 16:37:48;;;;;;;;;;;;;;;;;;10461988;28;19925;-70
2022/06/20 16:42:50;;;;;;;;;;;;;;;;;;10455174;28;19925;-70
2022/06/20 16:47:52;;;;;;;;;;;;;;;;;;10459302;28;20315;-66
2022/06/20 16:52:54;;;;;;;;;;;;;;;;;;10459480;28;19928;-66
2022/06/20 16:57:56;;;;;;;;;;;;;;;;;;10460353;28;19925;-67
2022/06/20 17:02:58;;;;;;;;;;;;;;;;;;10460280;28;20386;-67
2022/06/20 17:08:00;;;;;;;;;;;;;;;;;;10459127;28;19925;-66
2022/06/20 17:13:04;;;;;;;;;;;;;;;;;;10458278;28;20272;-67
2022/06/20 17:18:06;;;;;;;;;;;;;;;;;;10436671;28;20296;-67
2022/06/20 17:23:09;;;;;;;;;;;;;;;;;;10419111;28;19925;-66
2022/06/20 17:28:11;;;;;;;;;;;;;;;;;;10418762;28;20004;-67
2022/06/20 17:33:13;;;;;;;;;;;;;;;;;;10417777;28;20016;-66
2022/06/20 17:38:15;;;;;;;;;;;;;;;;;;10418794;28;19992;-66
2022/06/20 17:43:17;;;;;;;;;;;;;;;;;;10417868;28;19932;-68
2022/06/20 17:48:20;;;;;;;;;;;;;;;;;;10417299;28;20391;-65
2022/06/20 17:53:22;;;;;;;;;;;;;;;;;;10418003;28;19932;-65
2022/06/20 17:58:26;;;;;;;;;;;;;;;;;;10416676;28;20319;-65
2022/06/20 18:03:28;;;;;;;;;;;;;;;;;;10417880;28;19925;-64
2022/06/20 18:08:30;;;;;;;;;;;;;;;;;;10404677;28;20399;-65
2022/06/20 18:13:32;;;;;;;;;;;;;;;;;;10418331;28;19926;-65
2022/06/20 18:18:34;;;;;;;;;;;;;;;;;;10416811;28;19929;-65
2022/06/20 18:23:36;;;;;;;;;;;;;;;;;;10417421;28;20291;-65
2022/06/20 18:28:38;;;;;;;;;;;;;;;;;;10437758;28;19932;-64
2022/06/20 18:33:41;;;;;;;;;;;;;;;;;;10417353;28;19925;-65
2022/06/20 18:38:43;;;;;;;;;;;;;;;;;;10416306;28;19931;-64
2022/06/20 18:43:45;;;;;;;;;;;;;;;;;;10438318;28;19932;-65
2022/06/20 18:48:47;;;;;;;;;;;;;;;;;;10427519;28;20388;-64
2022/06/20 18:53:49;;;;;;;;;;;;;;;;;;10427794;28;19925;-65
2022/06/20 18:58:51;;;;;;;;;;;;;;;;;;10417362;28;19925;-67
2022/06/20 19:03:53;;;;;;;;;;;;;;;;;;10419683;28;19925;-67
2022/06/20 19:08:56;;;;;;;;;;;;;;;;;;10422492;28;19941;-67
2022/06/20 19:13:58;;;;;;;;;;;;;;;;;;10423098;28;19925;-67
2022/06/20 19:19:00;;;;;;;;;;;;;;;;;;10431035;28;19931;-67
2022/06/20 19:24:02;;;;;;;;;;;;;;;;;;10456518;28;20352;-67
2022/06/20 19:29:04;;;;;;;;;;;;;;;;;;10462957;28;19932;-68
2022/06/20 19:34:06;;;;;;;;;;;;;;;;;;10462168;28;19935;-67
2022/06/20 19:39:08;;;;;;;;;;;;;;;;;;10433339;28;19925;-67
2022/06/20 19:44:10;;;;;;;;;;;;;;;;;;10421557;28;19932;-68
2022/06/20 19:49:12;;;;;;;;;;;;;;;;;;10423070;28;20300;-67
2022/06/20 19:54:14;;;;;;;;;;;;;;;;;;10423648;28;20384;-67
2022/06/20 19:59:16;;;;;;;;;;;;;;;;;;10392858;28;19928;-67
2022/06/20 20:04:18;;;;;;;;;;;;;;;;;;10458698;28;19939;-68
2022/06/20 20:09:20;;;;;;;;;;;;;;;;;;10455567;28;19924;-67
2022/06/20 20:14:23;;;;;;;;;;;;;;;;;;10423680;28;19925;-67
2022/06/20 20:19:25;;;;;;;;;;;;;;;;;;10438775;28;19936;-67
2022/06/20 20:24:30;;;;;;;;;;;;;;;;;;10429360;28;19932;-67
2022/06/20 20:29:32;;;;;;;;;;;;;;;;;;10420518;28;19925;-67
2022/06/20 20:34:34;;;;;;;;;;;;;;;;;;10420282;28;20372;-67
2022/06/20 20:39:36;;;;;;;;;;;;;;;;;;10422355;28;20395;-67
2022/06/20 20:44:38;;;;;;;;;;;;;;;;;;10420933;28;20300;-68
2022/06/20 20:49:40;;;;;;;;;;;;;;;;;;10420033;28;19925;-68
2022/06/20 20:54:43;;;;;;;;;;;;;;;;;;10457183;28;20372;-67
2022/06/20 20:59:45;;;;;;;;;;;;;;;;;;10460456;28;20368;-67
2022/06/20 21:04:47;;;;;;;;;;;;;;;;;;10460647;28;19925;-67
2022/06/20 21:09:49;;;;;;;;;;;;;;;;;;10457776;28;20402;-67
2022/06/20 21:14:51;;;;;;;;;;;;;;;;;;10439812;22;19929;-69
2022/06/20 21:19:53;;;;;;;;;;;;;;;;;;10418923;28;19929;-69
2022/06/20 21:24:57;;;;;;;;;;;;;;;;;;10418194;28;20276;-69
2022/06/20 21:29:59;;;;;;;;;;;;;;;;;;10418494;28;19925;-69
2022/06/20 21:35:01;;;;;;;;;;;;;;;;;;10418766;28;19925;-69
2022/06/20 21:40:04;;;;;;;;;;;;;;;;;;10434003;28;19934;-69
2022/06/20 21:45:06;;;;;;;;;;;;;;;;;;10458689;28;20383;-69
2022/06/20 21:50:09;;;;;;;;;;;;;;;;;;10457614;28;19925;-69
2022/06/20 21:55:11;;;;;;;;;;;;;;;;;;10421030;28;19924;-69
2022/06/20 22:00:14;;;;;;;;;;;;;;;;;;10459123;28;19924;-69
2022/06/20 22:05:16;;;;;;;;;;;;;;;;;;10458624;28;19924;-69
2022/06/20 22:10:18;;;;;;;;;;;;;;;;;;10434530;28;19929;-69
2022/06/20 22:15:20;;;;;;;;;;;;;;;;;;10416498;28;19925;-69
2022/06/20 22:20:22;;;;;;;;;;;;;;;;;;10426414;28;19925;-69
2022/06/20 22:25:24;;;;;;;;;;;;;;;;;;10457266;28;20276;-69
2022/06/20 22:30:26;;;;;;;;;;;;;;;;;;10455797;28;19932;-69
2022/06/20 22:35:28;;;;;;;;;;;;;;;;;;10455178;28;20387;-69
2022/06/20 22:40:30;;;;;;;;;;;;;;;;;;10415556;28;19932;-69
2022/06/20 22:45:32;;;;;;;;;;;;;;;;;;10415396;28;19925;-69
2022/06/20 22:50:34;;;;;;;;;;;;;;;;;;10416989;28;19979;-69
2022/06/20 22:55:36;;;;;;;;;;;;;;;;;;10415826;28;19925;-69
2022/06/20 23:00:39;;;;;;;;;;;;;;;;;;10415875;28;19929;-70
2022/06/20 23:05:41;;;;;;;;;;;;;;;;;;10422477;28;19924;-70
2022/06/20 23:10:43;;;;;;;;;;;;;;;;;;10455286;28;19924;-69
2022/06/20 23:15:45;;;;;;;;;;;;;;;;;;10456206;28;19931;-68
2022/06/20 23:20:47;;;;;;;;;;;;;;;;;;10456125;28;20485;-68
2022/06/20 23:25:49;;;;;;;;;;;;;;;;;;10455890;28;19924;-68
2022/06/20 23:30:51;;;;;;;;;;;;;;;;;;10454940;28;19925;-68
2022/06/20 23:35:54;;;;;;;;;;;;;;;;;;10456443;28;19925;-69
2022/06/20 23:40:57;;;;;;;;;;;;;;;;;;10455700;28;19929;-69
2022/06/20 23:45:59;;;;;;;;;;;;;;;;;;10454704;28;19924;-69
2022/06/20 23:51:02;;;;;;;;;;;;;;;;;;10456857;28;19932;-69
2022/06/20 23:56:04;;;;;;;;;;;;;;;;;;10463735;28;19925;-69
